Nearby METAR Reports

 

KPBH - Phillips, Wisconsin, USA
Distance from station: SE 13mi, 21km
Updated: 01/19/2019 9:35pm
Clear
Clear
 Wind from NNW
Wind: NNW 3 mph , 6 km/h
Temperature: -4°F , -20°C
Dew Point: -11°F , -24°C
Humidity: 71%
Barometer: 30.21 inHg , 1023 hPa
Clouds: Clear
Visibility: 10 miles , 16 km
2019/01/20 03:35 KPBH 200335Z AUTO 34003KT 10SM CLR M20/M24 A3021 RMK AO2 T11961240
KRCX - Ladysmith/Rusk, Wisconsin, USA
Distance from station: SW 29mi, 46km
Updated: 01/19/2019 9:15pm
Clear
Clear
 Wind from N
Wind: N 8 mph , 13 km/h
Temperature: 1°F , -17°C
Wind Chill: -13°F , -25°C
Dew Point: -11°F , -24°C
Humidity: 55%
Barometer: 30.28 inHg , 1025.4 hPa
Clouds: Clear
Visibility: 10 miles , 16 km
2019/01/20 03:15 KRCX 200315Z AUTO 35007KT 10SM CLR M17/M24 A3028 RMK AO2 T11721236
 
KD25 - Manitowish Water, Wisconsin, USA
Distance from station: ENE 41mi, 66km
Updated: 01/19/2019 9:15pm
Mostly cloudy
Mostly cloudy
 Wind from WNW
Wind: WNW 5 mph , 7 km/h
Temperature: -4°F , -20°C
Wind Chill: -15°F , -26°C
Dew Point: -11°F , -24°C
Humidity: 71%
Barometer: 30.18 inHg , 1022 hPa
Clouds: Mostly cloudy
Visibility: 10 miles , 16 km
Cloud details: Partly cloudy 2900 ft
Mostly cloudy 3400 ft
2019/01/20 03:15 KD25 200315Z AUTO 30004KT 10SM SCT029 BKN034 M20/M24 A3018 RMK AO2 T12021236
KHYR - Hayward, Wisconsin, USA
Distance from station: WNW 42mi, 68km
Updated: 01/19/2019 8:53pm
Clear
Clear
 Wind from N
Wind: N 3 mph , 6 km/h
Temperature: -2°F , -19°C
Dew Point: -17°F , -27°C
Humidity: 49%
Barometer: 30.29 inHg , 1025.7 hPa
Clouds: Clear
Visibility: 10 miles , 16 km
2019/01/20 02:53 KHYR 200253Z AUTO 35003KT 10SM CLR M19/M27 A3029 RMK AO2 SLP295 T11941267 50005
 
KARV - Minocqua/Woodruf, Wisconsin, USA
Distance from station: E 44mi, 71km
Updated: 01/19/2019 9:15pm
Clear
Clear
 Wind from NNW
Wind: NNW 7 mph , 11 km/h
Temperature: 1°F , -17°C
Wind Chill: -12°F , -24°C
Dew Point: -4°F , -20°C
Humidity: 78%
Barometer: 30.17 inHg , 1021.7 hPa
Clouds: Clear
Visibility: 10 miles , 16 km
2019/01/20 03:15 KARV 200315Z AUTO 33006KT 10SM CLR M17/M20 A3017 RMK AO2 T11701205
KTKV - Tomahawk Regnl, Wisconsin, USA
Distance from station: ESE 46mi, 74km
Updated: 01/19/2019 9:15pm
Overcast
Overcast
 Wind from NW
Wind: NW 9 mph , 15 km/h
Temperature: 3°F , -16°C
Wind Chill: -11°F , -24°C
Dew Point: -4°F , -20°C
Humidity: 72%
Barometer: 30.20 inHg , 1022.7 hPa
Clouds: Overcast
Visibility: 10 miles , 16 km
Cloud details: Overcast 3000 ft
2019/01/20 03:15 KTKV 200315Z AUTO 32008KT 10SM OVC030 M16/M20 A3020 RMK AO2 T11601201